sensor_id;sensor_type;location;lat;lon;timestamp;pressure;altitude;pressure_sealevel;temperature;humidity
56632;BME280;42503;39.928;-75.152;2023-05-24T00:07:13;102285.09;;;25.54;36.54
56632;BME280;42503;39.928;-75.152;2023-05-24T00:17:16;102287.06;;;25.48;36.48
56632;BME280;42503;39.928;-75.152;2023-05-24T00:27:22;102308.63;;;25.58;36.79
56632;BME280;42503;39.928;-75.152;2023-05-24T00:37:23;102286.75;;;25.50;36.85
56632;BME280;42503;39.928;-75.152;2023-05-24T00:47:24;102292.94;;;25.62;36.75
56632;BME280;42503;39.928;-75.152;2023-05-24T00:57:26;102291.81;;;25.63;36.90
56632;BME280;42503;39.928;-75.152;2023-05-24T01:27:49;102248.38;;;25.40;37.41
56632;BME280;42503;39.928;-75.152;2023-05-24T01:37:53;102294.31;;;25.65;37.34
56632;BME280;42503;39.928;-75.152;2023-05-24T01:49:02;102296.84;;;25.56;36.68
56632;BME280;42503;39.928;-75.152;2023-05-24T01:58:35;102272.47;;;25.51;36.69
56632;BME280;42503;39.928;-75.152;2023-05-24T02:08:37;102280.03;;;25.56;36.60
56632;BME280;42503;39.928;-75.152;2023-05-24T02:18:38;102285.63;;;25.56;36.71
56632;BME280;42503;39.928;-75.152;2023-05-24T02:28:40;102272.75;;;25.55;36.72
56632;BME280;42503;39.928;-75.152;2023-05-24T02:38:41;102249.19;;;25.51;36.32
56632;BME280;42503;39.928;-75.152;2023-05-24T02:48:42;102191.47;;;25.19;36.65
56632;BME280;42503;39.928;-75.152;2023-05-24T02:58:44;102230.44;;;25.46;36.40
56632;BME280;42503;39.928;-75.152;2023-05-24T03:08:57;102221.72;;;25.43;36.94
56632;BME280;42503;39.928;-75.152;2023-05-24T03:19:05;102213.31;;;25.43;37.13
56632;BME280;42503;39.928;-75.152;2023-05-24T03:29:06;102202.97;;;25.43;37.21
56632;BME280;42503;39.928;-75.152;2023-05-24T03:39:10;102189.22;;;25.42;37.40
56632;BME280;42503;39.928;-75.152;2023-05-24T03:49:12;102167.38;;;25.28;37.53
56632;BME280;42503;39.928;-75.152;2023-05-24T03:59:13;102178.03;;;25.42;37.40
56632;BME280;42503;39.928;-75.152;2023-05-24T04:09:14;102165.16;;;25.35;37.68
56632;BME280;42503;39.928;-75.152;2023-05-24T04:19:16;102167.97;;;25.35;37.90
56632;BME280;42503;39.928;-75.152;2023-05-24T04:29:20;102083.94;;;24.84;37.82
56632;BME280;42503;39.928;-75.152;2023-05-24T04:39:21;102160.69;;;25.34;37.77
56632;BME280;42503;39.928;-75.152;2023-05-24T04:49:22;102135.19;;;25.26;37.95
56632;BME280;42503;39.928;-75.152;2023-05-24T04:59:24;102105.25;;;25.11;37.84
56632;BME280;42503;39.928;-75.152;2023-05-24T05:09:25;102130.41;;;25.31;37.80
56632;BME280;42503;39.928;-75.152;2023-05-24T05:19:28;102115.84;;;25.24;38.00
56632;BME280;42503;39.928;-75.152;2023-05-24T05:29:29;102108.84;;;25.27;38.31
56632;BME280;42503;39.928;-75.152;2023-05-24T05:39:30;102106.34;;;25.25;38.00
56632;BME280;42503;39.928;-75.152;2023-05-24T05:49:35;102068.22;;;25.19;38.10
56632;BME280;42503;39.928;-75.152;2023-05-24T05:59:36;102060.09;;;25.23;38.15
56632;BME280;42503;39.928;-75.152;2023-05-24T06:09:40;102031.28;;;25.12;38.30
56632;BME280;42503;39.928;-75.152;2023-05-24T06:19:44;102056.19;;;25.19;38.47
56632;BME280;42503;39.928;-75.152;2023-05-24T06:29:46;102040.81;;;25.16;38.53
56632;BME280;42503;39.928;-75.152;2023-05-24T06:39:47;102010.00;;;25.11;38.25
56632;BME280;42503;39.928;-75.152;2023-05-24T06:49:49;102006.06;;;25.07;38.31
56632;BME280;42503;39.928;-75.152;2023-05-24T06:59:51;101973.09;;;24.83;38.62
56632;BME280;42503;39.928;-75.152;2023-05-24T07:09:52;102030.72;;;25.10;38.55
56632;BME280;42503;39.928;-75.152;2023-05-24T07:19:56;102025.41;;;25.08;38.65
56632;BME280;42503;39.928;-75.152;2023-05-24T07:30:00;102033.50;;;25.05;38.70
56632;BME280;42503;39.928;-75.152;2023-05-24T07:40:02;102029.03;;;24.99;38.37
56632;BME280;42503;39.928;-75.152;2023-05-24T07:50:08;102025.94;;;25.00;38.53
56632;BME280;42503;39.928;-75.152;2023-05-24T08:00:13;102019.53;;;24.95;38.78
56632;BME280;42503;39.928;-75.152;2023-05-24T08:10:14;102026.78;;;25.01;38.61
56632;BME280;42503;39.928;-75.152;2023-05-24T08:20:16;102029.88;;;24.99;38.68
56632;BME280;42503;39.928;-75.152;2023-05-24T08:30:17;102026.78;;;25.01;38.90
56632;BME280;42503;39.928;-75.152;2023-05-24T08:40:19;102037.97;;;25.01;38.90
56632;BME280;42503;39.928;-75.152;2023-05-24T08:50:24;102021.47;;;24.99;38.79
56632;BME280;42503;39.928;-75.152;2023-05-24T09:00:25;102005.22;;;24.96;38.90
56632;BME280;42503;39.928;-75.152;2023-05-24T09:10:27;101981.47;;;24.78;38.93
56632;BME280;42503;39.928;-75.152;2023-05-24T09:20:30;101998.25;;;24.94;38.81
56632;BME280;42503;39.928;-75.152;2023-05-24T09:30:31;101983.97;;;24.95;38.69
56632;BME280;42503;39.928;-75.152;2023-05-24T09:40:33;102002.19;;;24.93;38.85
56632;BME280;42503;39.928;-75.152;2023-05-24T09:50:35;101980.88;;;24.87;38.69
56632;BME280;42503;39.928;-75.152;2023-05-24T10:00:39;101989.28;;;24.92;38.73
56632;BME280;42503;39.928;-75.152;2023-05-24T10:10:41;101978.41;;;24.75;39.02
56632;BME280;42503;39.928;-75.152;2023-05-24T10:20:43;101953.78;;;24.62;39.05
56632;BME280;42503;39.928;-75.152;2023-05-24T10:41:07;101987.63;;;24.85;38.79
56632;BME280;42503;39.928;-75.152;2023-05-24T10:51:36;101981.19;;;24.80;39.07
56632;BME280;42503;39.928;-75.152;2023-05-24T11:01:39;101957.38;;;24.82;39.06
56632;BME280;42503;39.928;-75.152;2023-05-24T11:11:45;101952.38;;;24.79;39.07
56632;BME280;42503;39.928;-75.152;2023-05-24T11:21:49;101940.63;;;24.72;39.14
56632;BME280;42503;39.928;-75.152;2023-05-24T11:31:56;101921.03;;;24.62;39.19
56632;BME280;42503;39.928;-75.152;2023-05-24T11:42:07;101919.06;;;24.73;39.11
56632;BME280;42503;39.928;-75.152;2023-05-24T11:52:09;101914.03;;;24.70;39.19
56632;BME280;42503;39.928;-75.152;2023-05-24T12:02:10;101898.66;;;24.67;39.29
56632;BME280;42503;39.928;-75.152;2023-05-24T12:12:12;101887.72;;;24.71;39.04
56632;BME280;42503;39.928;-75.152;2023-05-24T12:22:13;101884.63;;;24.72;39.24
56632;BME280;42503;39.928;-75.152;2023-05-24T12:32:16;101882.97;;;24.71;39.36
56632;BME280;42503;39.928;-75.152;2023-05-24T12:42:17;101875.69;;;24.70;39.06
56632;BME280;42503;39.928;-75.152;2023-05-24T12:52:19;101874.28;;;24.73;39.27
56632;BME280;42503;39.928;-75.152;2023-05-24T13:02:20;101867.81;;;24.77;39.36
56632;BME280;42503;39.928;-75.152;2023-05-24T13:12:22;101848.78;;;24.79;39.13
56632;BME280;42503;39.928;-75.152;2023-05-24T13:22:23;101804.63;;;24.66;39.04
56632;BME280;42503;39.928;-75.152;2023-05-24T13:32:25;101806.56;;;24.71;38.98
56632;BME280;42503;39.928;-75.152;2023-05-24T13:42:26;101791.97;;;24.74;38.96
56632;BME280;42503;39.928;-75.152;2023-05-24T13:52:28;101787.25;;;24.74;39.04
56632;BME280;42503;39.928;-75.152;2023-05-24T14:02:29;101779.91;;;24.83;38.86
56632;BME280;42503;39.928;-75.152;2023-05-24T14:12:31;101756.94;;;24.81;38.91
56632;BME280;42503;39.928;-75.152;2023-05-24T14:22:32;101726.22;;;24.71;38.79
56632;BME280;42503;39.928;-75.152;2023-05-24T14:32:37;101722.19;;;24.88;38.84
56632;BME280;42503;39.928;-75.152;2023-05-24T14:42:39;101723.59;;;24.90;38.76
56632;BME280;42503;39.928;-75.152;2023-05-24T14:52:41;101720.50;;;24.92;38.64
56632;BME280;42503;39.928;-75.152;2023-05-24T15:02:42;101709.88;;;24.94;38.84
56632;BME280;42503;39.928;-75.152;2023-05-24T15:12:46;101692.75;;;24.95;38.66
56632;BME280;42503;39.928;-75.152;2023-05-24T15:22:48;101673.53;;;24.83;38.49
56632;BME280;42503;39.928;-75.152;2023-05-24T15:32:50;101660.00;;;24.96;38.55
56632;BME280;42503;39.928;-75.152;2023-05-24T15:42:51;101665.28;;;25.02;38.61
56632;BME280;42503;39.928;-75.152;2023-05-24T15:52:52;101645.13;;;25.00;38.66
56632;BME280;42503;39.928;-75.152;2023-05-24T16:02:54;101613.19;;;25.01;38.46
56632;BME280;42503;39.928;-75.152;2023-05-24T16:12:59;101607.84;;;25.05;38.74
56632;BME280;42503;39.928;-75.152;2023-05-24T16:23:00;101591.88;;;25.05;38.52
56632;BME280;42503;39.928;-75.152;2023-05-24T16:33:03;101584.91;;;25.08;38.56
56632;BME280;42503;39.928;-75.152;2023-05-24T16:43:04;101575.91;;;25.06;38.52
56632;BME280;42503;39.928;-75.152;2023-05-24T16:53:06;101556.31;;;25.06;38.64
56632;BME280;42503;39.928;-75.152;2023-05-24T17:03:07;101543.97;;;25.12;38.70
56632;BME280;42503;39.928;-75.152;2023-05-24T17:13:08;101518.53;;;25.08;38.76
56632;BME280;42503;39.928;-75.152;2023-05-24T17:23:10;101494.09;;;25.14;38.74
56632;BME280;42503;39.928;-75.152;2023-05-24T17:33:14;101488.97;;;25.21;38.42
56632;BME280;42503;39.928;-75.152;2023-05-24T17:43:15;101477.16;;;25.24;38.32
56632;BME280;42503;39.928;-75.152;2023-05-24T17:53:17;101343.56;;;24.53;38.66
56632;BME280;42503;39.928;-75.152;2023-05-24T18:03:22;101457.53;;;25.29;38.51
56632;BME280;42503;39.928;-75.152;2023-05-24T18:13:23;101446.31;;;25.29;38.32
56632;BME280;42503;39.928;-75.152;2023-05-24T18:23:25;101416.69;;;25.23;38.19
56632;BME280;42503;39.928;-75.152;2023-05-24T18:33:27;101413.28;;;25.26;38.10
56632;BME280;42503;39.928;-75.152;2023-05-24T18:43:28;101402.53;;;25.33;38.26
56632;BME280;42503;39.928;-75.152;2023-05-24T18:53:29;101384.91;;;25.33;38.09
56632;BME280;42503;39.928;-75.152;2023-05-24T19:03:30;101363.56;;;25.37;38.03
56632;BME280;42503;39.928;-75.152;2023-05-24T19:13:37;101348.66;;;25.42;38.11
56632;BME280;42503;39.928;-75.152;2023-05-24T19:23:39;101327.69;;;25.39;38.25
56632;BME280;42503;39.928;-75.152;2023-05-24T19:33:44;101301.09;;;25.37;38.03
56632;BME280;42503;39.928;-75.152;2023-05-24T19:43:48;101302.41;;;25.44;38.26
56632;BME280;42503;39.928;-75.152;2023-05-24T19:53:52;101288.91;;;25.46;38.13
56632;BME280;42503;39.928;-75.152;2023-05-24T20:03:54;101282.31;;;25.56;38.43
56632;BME280;42503;39.928;-75.152;2023-05-24T20:13:55;101261.41;;;25.67;38.78
56632;BME280;42503;39.928;-75.152;2023-05-24T20:23:57;101258.13;;;25.79;38.85
56632;BME280;42503;39.928;-75.152;2023-05-24T20:33:58;101242.28;;;25.69;39.01
56632;BME280;42503;39.928;-75.152;2023-05-24T20:43:59;101238.16;;;25.67;39.06
56632;BME280;42503;39.928;-75.152;2023-05-24T20:54:03;101223.78;;;25.54;38.81
56632;BME280;42503;39.928;-75.152;2023-05-24T21:04:04;101234.72;;;25.70;38.83
56632;BME280;42503;39.928;-75.152;2023-05-24T21:14:05;101221.53;;;25.70;38.80
56632;BME280;42503;39.928;-75.152;2023-05-24T21:24:07;101214.50;;;25.73;38.63
56632;BME280;42503;39.928;-75.152;2023-05-24T21:34:08;101195.19;;;25.71;38.75
56632;BME280;42503;39.928;-75.152;2023-05-24T21:44:12;101155.00;;;25.62;38.91
56632;BME280;42503;39.928;-75.152;2023-05-24T21:54:18;101176.06;;;25.73;38.85
56632;BME280;42503;39.928;-75.152;2023-05-24T22:04:19;101056.78;;;25.07;38.87
56632;BME280;42503;39.928;-75.152;2023-05-24T22:14:21;101138.09;;;25.67;38.73
56632;BME280;42503;39.928;-75.152;2023-05-24T22:24:23;101143.59;;;25.72;38.70
56632;BME280;42503;39.928;-75.152;2023-05-24T22:34:28;101149.69;;;25.74;38.79
56632;BME280;42503;39.928;-75.152;2023-05-24T22:44:32;101149.13;;;25.77;38.71
56632;BME280;42503;39.928;-75.152;2023-05-24T22:54:36;101137.91;;;25.77;38.72
56632;BME280;42503;39.928;-75.152;2023-05-24T23:04:40;101139.63;;;25.73;39.10
56632;BME280;42503;39.928;-75.152;2023-05-24T23:14:45;101148.53;;;25.80;38.82
56632;BME280;42503;39.928;-75.152;2023-05-24T23:24:47;101152.25;;;25.76;38.61
56632;BME280;42503;39.928;-75.152;2023-05-24T23:34:48;101156.94;;;25.80;38.56
56632;BME280;42503;39.928;-75.152;2023-05-24T23:44:50;101150.78;;;25.78;38.91
56632;BME280;42503;39.928;-75.152;2023-05-24T23:54:51;101170.31;;;25.83;38.38
